sensor_id;sensor_type;location;lat;lon;timestamp;pressure;altitude;pressure_sealevel;temperature;humidity
47761;BME280;33524;55.434;38.520;2024-03-02T00:00:08;101604.56;;;-1.50;95.38
47761;BME280;33524;55.434;38.520;2024-03-02T00:02:45;101600.28;;;-1.47;95.08
47761;BME280;33524;55.434;38.520;2024-03-02T00:05:15;101606.28;;;-1.55;95.42
47761;BME280;33524;55.434;38.520;2024-03-02T00:07:47;101602.00;;;-1.58;95.42
47761;BME280;33524;55.434;38.520;2024-03-02T00:10:21;101603.72;;;-1.51;95.01
47761;BME280;33524;55.434;38.520;2024-03-02T00:12:53;101610.63;;;-1.59;94.94
47761;BME280;33524;55.434;38.520;2024-03-02T00:15:45;101607.19;;;-1.63;95.13
47761;BME280;33524;55.434;38.520;2024-03-02T00:18:19;101613.22;;;-1.68;95.07
47761;BME280;33524;55.434;38.520;2024-03-02T00:20:47;101595.16;;;-1.65;94.43
47761;BME280;33524;55.434;38.520;2024-03-02T00:23:16;101608.09;;;-1.80;95.22
47761;BME280;33524;55.434;38.520;2024-03-02T00:25:53;101605.50;;;-1.87;95.49
47761;BME280;33524;55.434;38.520;2024-03-02T00:28:36;101602.09;;;-2.01;96.00
47761;BME280;33524;55.434;38.520;2024-03-02T00:31:11;101601.16;;;-1.57;94.45
47761;BME280;33524;55.434;38.520;2024-03-02T00:33:43;101605.50;;;-1.77;93.79
47761;BME280;33524;55.434;38.520;2024-03-02T00:36:14;101593.44;;;-1.63;94.69
47761;BME280;33524;55.434;38.520;2024-03-02T00:38:50;101593.19;;;-1.06;92.20
47761;BME280;33524;55.434;38.520;2024-03-02T00:41:27;101589.69;;;-0.97;89.98
47761;BME280;33524;55.434;38.520;2024-03-02T00:44:12;101593.94;;;-0.83;89.38
47761;BME280;33524;55.434;38.520;2024-03-02T00:46:41;101598.72;;;-0.30;87.50
47761;BME280;33524;55.434;38.520;2024-03-02T00:49:23;101596.84;;;-0.11;86.39
47761;BME280;33524;55.434;38.520;2024-03-02T00:51:53;101594.12;;;0.01;85.07
47761;BME280;33524;55.434;38.520;2024-03-02T00:54:25;101600.94;;;0.08;84.74
47761;BME280;33524;55.434;38.520;2024-03-02T00:56:53;101602.69;;;0.09;84.46
47761;BME280;33524;55.434;38.520;2024-03-02T00:59:23;101603.53;;;0.11;84.16
47761;BME280;33524;55.434;38.520;2024-03-02T01:01:52;101599.19;;;0.15;83.89
47761;BME280;33524;55.434;38.520;2024-03-02T01:04:20;101606.06;;;0.14;83.75
47761;BME280;33524;55.434;38.520;2024-03-02T01:06:48;101613.03;;;0.11;83.75
47761;BME280;33524;55.434;38.520;2024-03-02T01:09:16;101601.84;;;0.07;83.81
47761;BME280;33524;55.434;38.520;2024-03-02T01:11:46;101609.59;;;0.09;83.74
47761;BME280;33524;55.434;38.520;2024-03-02T01:14:14;101611.31;;;0.08;83.65
47761;BME280;33524;55.434;38.520;2024-03-02T01:16:42;101602.69;;;0.08;83.62
47761;BME280;33524;55.434;38.520;2024-03-02T01:19:10;101613.81;;;0.14;83.32
47761;BME280;33524;55.434;38.520;2024-03-02T01:21:39;101613.81;;;0.16;83.20
47761;BME280;33524;55.434;38.520;2024-03-02T01:24:07;101607.81;;;0.12;83.20
47761;BME280;33524;55.434;38.520;2024-03-02T01:26:35;101616.47;;;0.13;83.12
47761;BME280;33524;55.434;38.520;2024-03-02T01:29:03;101615.69;;;0.02;83.48
47761;BME280;33524;55.434;38.520;2024-03-02T01:31:32;101614.03;;;-0.04;83.84
47761;BME280;33524;55.434;38.520;2024-03-02T01:34:00;101617.63;;;-0.21;84.36
47761;BME280;33524;55.434;38.520;2024-03-02T01:36:28;101617.09;;;-0.66;85.13
47761;BME280;33524;55.434;38.520;2024-03-02T01:38:56;101619.69;;;-0.70;86.72
47761;BME280;33524;55.434;38.520;2024-03-02T01:41:25;101612.25;;;-1.33;86.82
47761;BME280;33524;55.434;38.520;2024-03-02T01:43:53;101619.25;;;-1.72;88.43
47761;BME280;33524;55.434;38.520;2024-03-02T01:46:21;101619.19;;;-1.54;89.52
47761;BME280;33524;55.434;38.520;2024-03-02T01:48:49;101620.91;;;-1.57;89.02
47761;BME280;33524;55.434;38.520;2024-03-02T01:51:17;101625.09;;;-1.16;89.69
47761;BME280;33524;55.434;38.520;2024-03-02T01:53:46;101622.53;;;-1.23;88.35
47761;BME280;33524;55.434;38.520;2024-03-02T01:56:14;101618.88;;;-0.83;88.63
47761;BME280;33524;55.434;38.520;2024-03-02T01:58:42;101630.72;;;-0.50;86.70
47761;BME280;33524;55.434;38.520;2024-03-02T02:01:12;101633.22;;;-0.37;85.72
47761;BME280;33524;55.434;38.520;2024-03-02T02:03:41;101630.03;;;-0.70;84.91
47761;BME280;33524;55.434;38.520;2024-03-02T02:06:09;101625.06;;;-1.07;86.76
47761;BME280;33524;55.434;38.520;2024-03-02T02:08:37;101636.41;;;-1.56;88.88
47761;BME280;33524;55.434;38.520;2024-03-02T02:11:06;101635.59;;;-1.67;89.26
47761;BME280;33524;55.434;38.520;2024-03-02T02:13:35;101635.59;;;-1.89;89.44
47761;BME280;33524;55.434;38.520;2024-03-02T02:16:07;101627.03;;;-2.09;88.96
47761;BME280;33524;55.434;38.520;2024-03-02T02:18:35;101628.75;;;-2.08;90.77
47761;BME280;33524;55.434;38.520;2024-03-02T02:21:04;101636.44;;;-2.60;91.34
47761;BME280;33524;55.434;38.520;2024-03-02T02:23:32;101625.12;;;-3.16;93.39
47761;BME280;33524;55.434;38.520;2024-03-02T02:26:01;101626.84;;;-3.20;94.36
47761;BME280;33524;55.434;38.520;2024-03-02T02:28:30;101629.41;;;-3.17;95.25
47761;BME280;33524;55.434;38.520;2024-03-02T02:30:58;101633.00;;;-2.69;95.63
47761;BME280;33524;55.434;38.520;2024-03-02T02:33:29;101634.66;;;-2.88;94.99
47761;BME280;33524;55.434;38.520;2024-03-02T02:35:57;101629.56;;;-2.57;95.51
47761;BME280;33524;55.434;38.520;2024-03-02T02:38:25;101636.41;;;-2.85;94.06
47761;BME280;33524;55.434;38.520;2024-03-02T02:40:53;101641.50;;;-3.00;93.57
47761;BME280;33524;55.434;38.520;2024-03-02T02:43:21;101630.41;;;-2.67;95.94
47761;BME280;33524;55.434;38.520;2024-03-02T02:45:49;101639.91;;;-1.85;94.17
47761;BME280;33524;55.434;38.520;2024-03-02T02:48:18;101636.34;;;-1.37;92.25
47761;BME280;33524;55.434;38.520;2024-03-02T02:50:46;101633.78;;;-1.36;89.37
47761;BME280;33524;55.434;38.520;2024-03-02T02:53:14;101639.06;;;-2.17;89.23
47761;BME280;33524;55.434;38.520;2024-03-02T02:55:42;101633.00;;;-2.56;91.09
47761;BME280;33524;55.434;38.520;2024-03-02T02:58:11;101634.63;;;-1.35;92.28
47761;BME280;33524;55.434;38.520;2024-03-02T03:00:40;101632.81;;;-1.12;87.22
47761;BME280;33524;55.434;38.520;2024-03-02T03:03:08;101634.72;;;-2.66;89.96
47761;BME280;33524;55.434;38.520;2024-03-02T03:05:36;101625.31;;;-2.46;92.22
47761;BME280;33524;55.434;38.520;2024-03-02T03:08:05;101635.62;;;-2.36;91.69
47761;BME280;33524;55.434;38.520;2024-03-02T03:10:33;101626.06;;;-2.90;93.43
47761;BME280;33524;55.434;38.520;2024-03-02T03:13:02;101626.00;;;-3.17;95.69
47761;BME280;33524;55.434;38.520;2024-03-02T03:15:31;101632.84;;;-3.24;96.98
47761;BME280;33524;55.434;38.520;2024-03-02T03:17:59;101624.25;;;-3.23;97.55
47761;BME280;33524;55.434;38.520;2024-03-02T03:20:27;101631.16;;;-3.16;97.76
47761;BME280;33524;55.434;38.520;2024-03-02T03:22:56;101625.09;;;-3.27;98.61
47761;BME280;33524;55.434;38.520;2024-03-02T03:25:25;101624.25;;;-3.23;98.87
47761;BME280;33524;55.434;38.520;2024-03-02T03:27:53;101631.13;;;-3.17;99.20
47761;BME280;33524;55.434;38.520;2024-03-02T03:30:22;101630.28;;;-3.15;99.26
47761;BME280;33524;55.434;38.520;2024-03-02T03:32:51;101632.88;;;-3.12;99.50
47761;BME280;33524;55.434;38.520;2024-03-02T03:35:19;101637.19;;;-3.03;99.28
47761;BME280;33524;55.434;38.520;2024-03-02T03:37:47;101635.50;;;-2.99;99.46
47761;BME280;33524;55.434;38.520;2024-03-02T03:40:16;101632.09;;;-2.95;99.50
47761;BME280;33524;55.434;38.520;2024-03-02T03:42:44;101627.78;;;-2.93;99.64
47761;BME280;33524;55.434;38.520;2024-03-02T03:45:12;101632.09;;;-2.91;99.76
47761;BME280;33524;55.434;38.520;2024-03-02T03:47:41;101624.38;;;-2.86;99.87
47761;BME280;33524;55.434;38.520;2024-03-02T03:50:09;101632.09;;;-2.80;99.83
47761;BME280;33524;55.434;38.520;2024-03-02T03:52:37;101632.12;;;-2.75;99.62
47761;BME280;33524;55.434;38.520;2024-03-02T03:55:06;101640.72;;;-2.70;99.45
47761;BME280;33524;55.434;38.520;2024-03-02T03:57:34;101637.31;;;-2.66;99.40
47761;BME280;33524;55.434;38.520;2024-03-02T04:00:03;101641.59;;;-2.64;99.39
47761;BME280;33524;55.434;38.520;2024-03-02T04:02:38;101643.31;;;-2.61;99.28
47761;BME280;33524;55.434;38.520;2024-03-02T04:05:07;101641.59;;;-2.57;99.02
47761;BME280;33524;55.434;38.520;2024-03-02T04:07:39;101645.03;;;-2.55;99.02
47761;BME280;33524;55.434;38.520;2024-03-02T04:10:11;101650.19;;;-2.52;98.86
47761;BME280;33524;55.434;38.520;2024-03-02T04:12:40;101650.19;;;-2.52;98.77
47761;BME280;33524;55.434;38.520;2024-03-02T04:15:08;101632.12;;;-2.63;98.71
47761;BME280;33524;55.434;38.520;2024-03-02T04:17:37;101654.50;;;-2.50;98.77
47761;BME280;33524;55.434;38.520;2024-03-02T04:20:06;101647.63;;;-2.49;98.64
47761;BME280;33524;55.434;38.520;2024-03-02T04:22:34;101651.91;;;-2.51;98.60
47761;BME280;33524;55.434;38.520;2024-03-02T04:25:04;101651.91;;;-2.54;98.99
47761;BME280;33524;55.434;38.520;2024-03-02T04:27:32;101644.16;;;-2.60;98.93
47761;BME280;33524;55.434;38.520;2024-03-02T04:30:01;101649.31;;;-2.59;98.74
47761;BME280;33524;55.434;38.520;2024-03-02T04:32:31;101655.34;;;-2.54;98.71
47761;BME280;33524;55.434;38.520;2024-03-02T04:34:59;101657.91;;;-2.52;98.55
47761;BME280;33524;55.434;38.520;2024-03-02T04:37:29;101663.09;;;-2.48;98.38
47761;BME280;33524;55.434;38.520;2024-03-02T04:39:57;101660.50;;;-2.46;98.52
47761;BME280;33524;55.434;38.520;2024-03-02T04:42:25;101652.78;;;-2.43;98.61
47761;BME280;33524;55.434;38.520;2024-03-02T04:44:53;101653.66;;;-2.39;98.42
47761;BME280;33524;55.434;38.520;2024-03-02T04:47:21;101619.28;;;-2.38;98.09
47761;BME280;33524;55.434;38.520;2024-03-02T04:49:50;101616.72;;;-2.40;98.14
47761;BME280;33524;55.434;38.520;2024-03-02T04:52:18;101621.88;;;-2.31;97.91
47761;BME280;33524;55.434;38.520;2024-03-02T04:54:47;101618.44;;;-2.30;98.08
47761;BME280;33524;55.434;38.520;2024-03-02T04:57:33;101612.44;;;-2.27;98.03
47761;BME280;33524;55.434;38.520;2024-03-02T05:00:01;101605.56;;;-2.28;98.17
47761;BME280;33524;55.434;38.520;2024-03-02T05:02:34;101620.16;;;-2.16;98.01
47761;BME280;33524;55.434;38.520;2024-03-02T05:05:03;101626.19;;;-2.19;97.86
47761;BME280;33524;55.434;38.520;2024-03-02T05:07:31;101614.13;;;-2.14;97.54
47761;BME280;33524;55.434;38.520;2024-03-02T05:09:59;101627.03;;;-2.03;97.39
47761;BME280;33524;55.434;38.520;2024-03-02T05:12:29;101624.44;;;-1.94;97.15
47761;BME280;33524;55.434;38.520;2024-03-02T05:15:04;101626.16;;;-1.87;96.69
47761;BME280;33524;55.434;38.520;2024-03-02T05:17:32;101626.97;;;-1.74;95.87
47761;BME280;33524;55.434;38.520;2024-03-02T05:20:01;101633.87;;;-1.73;95.83
47761;BME280;33524;55.434;38.520;2024-03-02T05:22:29;101627.84;;;-1.73;95.86
47761;BME280;33524;55.434;38.520;2024-03-02T05:24:58;101631.28;;;-1.68;95.80
47761;BME280;33524;55.434;38.520;2024-03-02T05:27:30;101621.78;;;-1.55;95.27
47761;BME280;33524;55.434;38.520;2024-03-02T05:29:59;101620.94;;;-1.56;95.12
47761;BME280;33524;55.434;38.520;2024-03-02T05:32:30;101624.34;;;-1.48;94.71
47761;BME280;33524;55.434;38.520;2024-03-02T05:34:58;101626.94;;;-1.45;93.94
47761;BME280;33524;55.434;38.520;2024-03-02T05:37:26;101626.06;;;-1.40;93.63
47761;BME280;33524;55.434;38.520;2024-03-02T05:39:54;101623.47;;;-1.36;93.47
47761;BME280;33524;55.434;38.520;2024-03-02T05:42:23;101620.00;;;-1.33;93.26
47761;BME280;33524;55.434;38.520;2024-03-02T05:44:51;101613.09;;;-1.27;92.28
47761;BME280;33524;55.434;38.520;2024-03-02T05:47:19;101615.69;;;-1.30;92.13
47761;BME280;33524;55.434;38.520;2024-03-02T05:49:48;101619.94;;;-1.19;91.65
47761;BME280;33524;55.434;38.520;2024-03-02T05:52:16;101620.91;;;-1.40;91.17
47761;BME280;33524;55.434;38.520;2024-03-02T05:54:44;101622.63;;;-1.43;90.98
47761;BME280;33524;55.434;38.520;2024-03-02T05:57:12;101628.50;;;-1.10;90.09
47761;BME280;33524;55.434;38.520;2024-03-02T05:59:59;101635.94;;;-0.54;87.62
47761;BME280;33524;55.434;38.520;2024-03-02T06:02:28;101627.03;;;-0.12;85.84
47761;BME280;33524;55.434;38.520;2024-03-02T06:04:56;101629.34;;;0.16;83.87
47761;BME280;33524;55.434;38.520;2024-03-02T06:07:24;101628.84;;;-0.25;83.74
47761;BME280;33524;55.434;38.520;2024-03-02T06:09:52;101624.59;;;-0.30;84.79
47761;BME280;33524;55.434;38.520;2024-03-02T06:12:21;101619.66;;;-0.66;85.89
47761;BME280;33524;55.434;38.520;2024-03-02T06:14:49;101630.84;;;-0.67;86.87
47761;BME280;33524;55.434;38.520;2024-03-02T06:17:17;101620.06;;;-0.05;85.06
47761;BME280;33524;55.434;38.520;2024-03-02T06:19:46;101634.78;;;-0.10;84.01
47761;BME280;33524;55.434;38.520;2024-03-02T06:22:15;101642.72;;;-0.38;86.45
47761;BME280;33524;55.434;38.520;2024-03-02T06:24:43;101642.75;;;-0.44;88.25
47761;BME280;33524;55.434;38.520;2024-03-02T06:27:12;101639.16;;;-0.22;88.81
47761;BME280;33524;55.434;38.520;2024-03-02T06:29:40;101646.81;;;-0.06;88.62
47761;BME280;33524;55.434;38.520;2024-03-02T06:32:08;101645.81;;;0.06;88.35
47761;BME280;33524;55.434;38.520;2024-03-02T06:34:36;101652.56;;;0.24;87.42
47761;BME280;33524;55.434;38.520;2024-03-02T06:37:04;101654.06;;;0.46;86.18
47761;BME280;33524;55.434;38.520;2024-03-02T06:39:32;101619.56;;;0.46;85.42
47761;BME280;33524;55.434;38.520;2024-03-02T06:42:02;101640.88;;;0.66;86.13
47761;BME280;33524;55.434;38.520;2024-03-02T06:44:30;101639.12;;;0.71;83.87
47761;BME280;33524;55.434;38.520;2024-03-02T06:46:58;101631.19;;;0.85;83.26
47761;BME280;33524;55.434;38.520;2024-03-02T06:49:27;101636.31;;;0.91;81.51
47761;BME280;33524;55.434;38.520;2024-03-02T06:51:55;101643.09;;;0.98;80.54
47761;BME280;33524;55.434;38.520;2024-03-02T06:54:24;101628.16;;;1.17;79.45
47761;BME280;33524;55.434;38.520;2024-03-02T06:56:52;101635.59;;;1.40;78.52
47761;BME280;33524;55.434;38.520;2024-03-02T06:59:20;101628.38;;;1.61;77.97
47761;BME280;33524;55.434;38.520;2024-03-02T07:01:48;101628.34;;;1.64;77.12
47761;BME280;33524;55.434;38.520;2024-03-02T07:04:16;101628.25;;;1.70;78.38
47761;BME280;33524;55.434;38.520;2024-03-02T07:06:44;101633.37;;;1.73;76.30
47761;BME280;33524;55.434;38.520;2024-03-02T07:09:12;101633.28;;;1.79;77.89
47761;BME280;33524;55.434;38.520;2024-03-02T07:11:40;101633.78;;;2.03;75.79
47761;BME280;33524;55.434;38.520;2024-03-02T07:14:09;101634.50;;;2.11;76.50
47761;BME280;33524;55.434;38.520;2024-03-02T07:16:37;101624.88;;;2.16;75.26
47761;BME280;33524;55.434;38.520;2024-03-02T07:19:08;101630.53;;;2.40;75.19
47761;BME280;33524;55.434;38.520;2024-03-02T07:21:37;101621.47;;;2.59;73.67
47761;BME280;33524;55.434;38.520;2024-03-02T07:24:05;101624.62;;;2.75;72.72
47761;BME280;33524;55.434;38.520;2024-03-02T07:26:34;101627.19;;;2.77;71.27
47761;BME280;33524;55.434;38.520;2024-03-02T07:29:05;101628.09;;;2.76;71.10
47761;BME280;33524;55.434;38.520;2024-03-02T07:31:33;101623.81;;;2.73;71.16
47761;BME280;33524;55.434;38.520;2024-03-02T07:34:02;101629.78;;;2.77;71.44
47761;BME280;33524;55.434;38.520;2024-03-02T07:36:31;101627.19;;;2.77;71.27
47761;BME280;33524;55.434;38.520;2024-03-02T07:38:59;101627.69;;;2.96;70.02
47761;BME280;33524;55.434;38.520;2024-03-02T07:41:27;101629.41;;;2.95;70.22
47761;BME280;33524;55.434;38.520;2024-03-02T07:43:55;101623.81;;;3.14;69.38
47761;BME280;33524;55.434;38.520;2024-03-02T07:46:24;101621.91;;;3.22;69.05
47761;BME280;33524;55.434;38.520;2024-03-02T07:48:53;101621.19;;;3.15;69.21
47761;BME280;33524;55.434;38.520;2024-03-02T07:51:21;101630.19;;;3.00;68.57
47761;BME280;33524;55.434;38.520;2024-03-02T07:53:50;101626.19;;;2.84;69.98
47761;BME280;33524;55.434;38.520;2024-03-02T07:56:19;101635.19;;;2.68;70.46
47761;BME280;33524;55.434;38.520;2024-03-02T07:58:50;101633.66;;;2.99;69.01
47761;BME280;33524;55.434;38.520;2024-03-02T08:01:19;101634.16;;;3.17;68.92
47761;BME280;33524;55.434;38.520;2024-03-02T08:03:48;101632.16;;;3.28;68.07
47761;BME280;33524;55.434;38.520;2024-03-02T08:06:18;101642.44;;;3.34;67.74
47761;BME280;33524;55.434;38.520;2024-03-02T08:08:48;101642.25;;;3.43;67.58
47761;BME280;33524;55.434;38.520;2024-03-02T08:11:17;101646.25;;;3.18;68.94
47761;BME280;33524;55.434;38.520;2024-03-02T08:13:45;101639.63;;;3.43;68.84
47761;BME280;33524;55.434;38.520;2024-03-02T08:16:15;101642.53;;;3.67;68.10
47761;BME280;33524;55.434;38.520;2024-03-02T08:18:43;101639.00;;;3.70;66.62
47761;BME280;33524;55.434;38.520;2024-03-02T08:21:13;101631.97;;;3.75;66.64
47761;BME280;33524;55.434;38.520;2024-03-02T08:23:42;101631.97;;;3.75;67.14
47761;BME280;33524;55.434;38.520;2024-03-02T08:26:11;101635.94;;;3.90;66.86
47761;BME280;33524;55.434;38.520;2024-03-02T08:28:40;101630.44;;;4.35;65.80
47761;BME280;33524;55.434;38.520;2024-03-02T09:24:34;101637.69;;;6.25;55.59
47761;BME280;33524;55.434;38.520;2024-03-02T09:27:21;101619.97;;;6.34;55.64
47761;BME280;33524;55.434;38.520;2024-03-02T09:29:50;101619.87;;;6.37;56.17
47761;BME280;33524;55.434;38.520;2024-03-02T09:32:20;101628.75;;;6.33;55.73
47761;BME280;33524;55.434;38.520;2024-03-02T09:34:48;101625.63;;;6.21;56.37
47761;BME280;33524;55.434;38.520;2024-03-02T09:37:16;101628.38;;;5.63;58.49
47761;BME280;33524;55.434;38.520;2024-03-02T09:39:45;101623.00;;;5.68;59.63
47761;BME280;33524;55.434;38.520;2024-03-02T09:42:13;101626.19;;;5.78;59.09
47761;BME280;33524;55.434;38.520;2024-03-02T09:44:43;101625.63;;;6.21;58.52
47761;BME280;33524;55.434;38.520;2024-03-02T09:47:12;101617.97;;;6.65;56.55
47761;BME280;33524;55.434;38.520;2024-03-02T09:49:40;101617.50;;;6.54;56.09
47761;BME280;33524;55.434;38.520;2024-03-02T09:52:08;101623.78;;;6.25;57.35
47761;BME280;33524;55.434;38.520;2024-03-02T09:54:38;101615.47;;;6.86;56.05
47761;BME280;33524;55.434;38.520;2024-03-02T09:57:08;101611.59;;;6.73;55.00
47761;BME280;33524;55.434;38.520;2024-03-02T09:59:37;101614.56;;;6.87;56.11
47761;BME280;33524;55.434;38.520;2024-03-02T10:02:06;101613.72;;;7.32;53.79
47761;BME280;33524;55.434;38.520;2024-03-02T10:04:38;101607.66;;;7.74;52.73
47761;BME280;33524;55.434;38.520;2024-03-02T10:07:16;101615.91;;;8.26;50.70
47761;BME280;33524;55.434;38.520;2024-03-02T10:09:50;101616.16;;;8.42;50.46
47761;BME280;33524;55.434;38.520;2024-03-02T10:12:19;101619.59;;;8.22;50.35
47761;BME280;33524;55.434;38.520;2024-03-02T10:14:48;101616.31;;;7.76;50.82
47761;BME280;33524;55.434;38.520;2024-03-02T10:17:18;101615.09;;;7.19;52.36
47761;BME280;33524;55.434;38.520;2024-03-02T10:19:46;101614.84;;;6.56;55.28
47761;BME280;33524;55.434;38.520;2024-03-02T10:22:15;101620.88;;;6.07;55.58
47761;BME280;33524;55.434;38.520;2024-03-02T10:24:44;101609.69;;;5.77;58.32
47761;BME280;33524;55.434;38.520;2024-03-02T10:27:19;101598.63;;;5.42;59.90
47761;BME280;33524;55.434;38.520;2024-03-02T10:29:51;101607.16;;;5.74;59.26
47761;BME280;33524;55.434;38.520;2024-03-02T10:32:22;101602.28;;;5.90;58.86
47761;BME280;33524;55.434;38.520;2024-03-02T10:34:51;101608.25;;;5.94;58.16
47761;BME280;33524;55.434;38.520;2024-03-02T10:37:19;101614.03;;;6.03;58.18
47761;BME280;33524;55.434;38.520;2024-03-02T10:39:49;101609.19;;;6.90;56.44
47761;BME280;33524;55.434;38.520;2024-03-02T10:42:23;101616.56;;;7.70;52.38
47761;BME280;33524;55.434;38.520;2024-03-02T10:44:51;101613.63;;;7.56;53.29
47761;BME280;33524;55.434;38.520;2024-03-02T10:47:21;101607.94;;;7.24;52.90
47761;BME280;33524;55.434;38.520;2024-03-02T10:49:51;101609.56;;;6.81;55.25
47761;BME280;33524;55.434;38.520;2024-03-02T10:52:20;101609.56;;;6.32;56.98
47761;BME280;33524;55.434;38.520;2024-03-02T10:54:51;101604.19;;;6.37;57.21
47761;BME280;33524;55.434;38.520;2024-03-02T10:57:21;101599.78;;;6.62;55.81
47761;BME280;33524;55.434;38.520;2024-03-02T10:59:57;101598.19;;;6.58;55.73
47761;BME280;33524;55.434;38.520;2024-03-02T11:02:30;101598.75;;;6.43;55.40
47761;BME280;33524;55.434;38.520;2024-03-02T11:05:04;101601.81;;;5.79;58.33
47761;BME280;33524;55.434;38.520;2024-03-02T11:07:36;101591.22;;;5.57;59.01
47761;BME280;33524;55.434;38.520;2024-03-02T11:10:08;101594.81;;;5.24;60.22
47761;BME280;33524;55.434;38.520;2024-03-02T11:12:39;101593.56;;;4.80;61.41
47761;BME280;33524;55.434;38.520;2024-03-02T11:15:17;101583.94;;;4.52;62.71
47761;BME280;33524;55.434;38.520;2024-03-02T11:17:48;101588.19;;;4.23;63.77
47761;BME280;33524;55.434;38.520;2024-03-02T11:20:18;101595.59;;;4.06;65.46
47761;BME280;33524;55.434;38.520;2024-03-02T11:22:46;101590.47;;;4.03;65.92
47761;BME280;33524;55.434;38.520;2024-03-02T11:25:28;101596.63;;;3.99;65.06
47761;BME280;33524;55.434;38.520;2024-03-02T11:33:05;101599.87;;;4.09;65.95
47761;BME280;33524;55.434;38.520;2024-03-02T11:35:44;101609.34;;;4.11;66.64
47761;BME280;33524;55.434;38.520;2024-03-02T11:38:21;101607.16;;;4.29;66.41
47761;BME280;33524;55.434;38.520;2024-03-02T11:40:49;101606.59;;;4.80;65.19
47761;BME280;33524;55.434;38.520;2024-03-02T11:43:20;101606.53;;;5.39;62.67
47761;BME280;33524;55.434;38.520;2024-03-02T11:45:57;101604.84;;;6.18;60.27
47761;BME280;33524;55.434;38.520;2024-03-02T11:48:26;101603.50;;;6.80;58.40
47761;BME280;33524;55.434;38.520;2024-03-02T11:50:58;101605.28;;;7.02;57.70
47761;BME280;33524;55.434;38.520;2024-03-02T11:53:27;101609.19;;;7.36;56.52
47761;BME280;33524;55.434;38.520;2024-03-02T11:56:01;101621.44;;;7.35;56.16
47761;BME280;33524;55.434;38.520;2024-03-02T11:58:30;101619.66;;;7.58;55.67
47761;BME280;33524;55.434;38.520;2024-03-02T12:00:58;101615.66;;;8.33;51.97
47761;BME280;33524;55.434;38.520;2024-03-02T12:03:26;101613.13;;;8.31;51.90
47761;BME280;33524;55.434;38.520;2024-03-02T12:09:16;101618.28;;;7.71;52.74
47761;BME280;33524;55.434;38.520;2024-03-02T12:11:45;101623.25;;;7.11;54.76
47761;BME280;33524;55.434;38.520;2024-03-02T12:14:13;101628.75;;;6.56;57.16
47761;BME280;33524;55.434;38.520;2024-03-02T12:16:44;101629.47;;;6.11;58.79
47761;BME280;33524;55.434;38.520;2024-03-02T12:19:14;101628.59;;;5.84;60.01
47761;BME280;33524;55.434;38.520;2024-03-02T12:21:46;101623.78;;;5.43;61.33
47761;BME280;33524;55.434;38.520;2024-03-02T12:24:15;101622.03;;;5.16;62.38
47761;BME280;33524;55.434;38.520;2024-03-02T12:26:44;101627.75;;;5.00;63.08
47761;BME280;33524;55.434;38.520;2024-03-02T12:31:54;101629.72;;;4.92;64.08
47761;BME280;33524;55.434;38.520;2024-03-02T12:34:24;101623.47;;;5.26;63.53
47761;BME280;33524;55.434;38.520;2024-03-02T12:36:52;101631.69;;;5.42;62.82
47761;BME280;33524;55.434;38.520;2024-03-02T12:39:22;101627.34;;;6.22;60.62
47761;BME280;33524;55.434;38.520;2024-03-02T12:41:51;101636.16;;;6.69;58.65
47761;BME280;33524;55.434;38.520;2024-03-02T12:44:21;101631.62;;;6.97;57.77
47761;BME280;33524;55.434;38.520;2024-03-02T12:46:50;101627.94;;;7.25;56.50
47761;BME280;33524;55.434;38.520;2024-03-02T12:49:22;101629.97;;;7.40;56.08
47761;BME280;33524;55.434;38.520;2024-03-02T12:51:50;101630.53;;;8.12;53.96
47761;BME280;33524;55.434;38.520;2024-03-02T12:54:22;101618.72;;;8.44;52.77
47761;BME280;33524;55.434;38.520;2024-03-02T12:56:50;101628.25;;;8.84;52.12
47761;BME280;33524;55.434;38.520;2024-03-02T12:59:20;101622.72;;;9.28;50.21
47761;BME280;33524;55.434;38.520;2024-03-02T13:01:52;101630.94;;;9.40;49.59
47761;BME280;33524;55.434;38.520;2024-03-02T13:04:25;101625.38;;;9.46;49.05
47761;BME280;33524;55.434;38.520;2024-03-02T13:06:55;101624.06;;;9.37;49.34
47761;BME280;33524;55.434;38.520;2024-03-02T13:09:27;101622.91;;;9.24;48.79
47761;BME280;33524;55.434;38.520;2024-03-02T13:11:56;101627.13;;;9.09;48.72
47761;BME280;33524;55.434;38.520;2024-03-02T13:14:24;101610.03;;;8.01;50.72
47761;BME280;33524;55.434;38.520;2024-03-02T13:16:57;101619.50;;;7.40;52.77
47761;BME280;33524;55.434;38.520;2024-03-02T13:19:25;101622.84;;;6.26;55.75
47761;BME280;33524;55.434;38.520;2024-03-02T13:21:57;101618.03;;;5.34;58.65
47761;BME280;33524;55.434;38.520;2024-03-02T13:24:26;101624.56;;;4.59;61.78
47761;BME280;33524;55.434;38.520;2024-03-02T13:26:56;101605.53;;;3.90;64.01
47761;BME280;33524;55.434;38.520;2024-03-02T13:29:25;101618.72;;;3.48;66.14
47761;BME280;33524;55.434;38.520;2024-03-02T13:31:53;101610.22;;;3.02;67.56
47761;BME280;33524;55.434;38.520;2024-03-02T13:34:23;101609.50;;;2.96;68.81
47761;BME280;33524;55.434;38.520;2024-03-02T13:36:52;101612.53;;;2.73;69.48
47761;BME280;33524;55.434;38.520;2024-03-02T13:39:19;101601.66;;;2.54;70.64
47761;BME280;33524;55.434;38.520;2024-03-02T13:41:48;101611.72;;;2.71;73.32
47761;BME280;33524;55.434;38.520;2024-03-02T13:44:20;101609.56;;;2.49;71.32
47761;BME280;33524;55.434;38.520;2024-03-02T13:46:50;101612.16;;;2.49;74.07
47761;BME280;33524;55.434;38.520;2024-03-02T13:49:20;101605.28;;;2.48;72.68
47761;BME280;33524;55.434;38.520;2024-03-02T13:51:48;101600.06;;;2.48;72.17
47761;BME280;33524;55.434;38.520;2024-03-02T13:54:16;101600.94;;;2.47;73.21
47761;BME280;33524;55.434;38.520;2024-03-02T13:56:45;101605.19;;;3.32;72.09
47761;BME280;33524;55.434;38.520;2024-03-02T13:59:14;101598.41;;;4.62;67.46
47761;BME280;33524;55.434;38.520;2024-03-02T14:01:42;101610.59;;;5.21;64.41